createdAt,value
2018-06-25T00:00:37.035Z,1.73
2018-06-25T00:03:06.367Z,1.40
2018-06-25T00:05:35.991Z,1.60
2018-06-25T00:08:05.007Z,1.40
2018-06-25T00:10:34.819Z,1.60
2018-06-25T00:13:03.407Z,2.10
2018-06-25T00:15:32.219Z,1.50
2018-06-25T00:18:05.567Z,1.63
2018-06-25T00:20:34.415Z,1.83
2018-06-25T00:23:03.323Z,1.70
2018-06-25T00:25:32.175Z,1.70
2018-06-25T00:28:01.043Z,1.63
2018-06-25T00:30:29.871Z,1.73
2018-06-25T00:32:58.751Z,1.40
2018-06-25T00:35:28.927Z,1.60
2018-06-25T00:38:01.315Z,1.40
2018-06-25T00:40:31.031Z,1.50
2018-06-25T00:43:00.739Z,1.33
2018-06-25T00:45:31.580Z,1.60
2018-06-25T00:48:00.858Z,1.50
2018-06-25T00:50:32.035Z,2.10
2018-06-25T00:53:00.883Z,1.80
2018-06-25T00:55:30.791Z,1.50
2018-06-25T00:58:01.291Z,1.93
2018-06-25T01:00:30.091Z,1.60
2018-06-25T01:02:59.994Z,1.70
2018-06-25T01:05:29.040Z,2.00
2018-06-25T01:07:59.851Z,1.50
2018-06-25T01:10:30.807Z,1.60
2018-06-25T01:12:59.519Z,1.83
2018-06-25T01:15:28.319Z,1.73
2018-06-25T01:17:58.619Z,1.33
2018-06-25T01:20:28.435Z,1.77
2018-06-25T01:22:59.046Z,2.10
2018-06-25T01:25:28.963Z,1.70
2018-06-25T01:27:58.235Z,1.63
2018-06-25T01:30:27.718Z,1.83
2018-06-25T01:32:56.547Z,1.33
2018-06-25T01:35:25.440Z,2.00
2018-06-25T01:37:59.002Z,2.20
2018-06-25T01:40:29.907Z,1.50
2018-06-25T01:42:58.667Z,1.83
2018-06-25T01:45:27.860Z,1.80
2018-06-25T01:47:56.863Z,1.40
2018-06-25T01:50:30.519Z,1.77
2018-06-25T01:53:00.991Z,1.60
2018-06-25T01:55:32.874Z,1.80
2018-06-25T01:58:03.508Z,1.60
2018-06-25T02:00:33.071Z,1.63
2018-06-25T02:03:02.695Z,1.57
2018-06-25T02:05:31.455Z,1.40
2018-06-25T02:08:01.294Z,1.30
2018-06-25T02:10:30.251Z,2.03
2018-06-25T02:12:59.163Z,1.60
2018-06-25T02:15:30.696Z,1.40
2018-06-25T02:18:00.671Z,1.60
2018-06-25T02:20:33.779Z,1.43
2018-06-25T02:23:07.688Z,1.70
2018-06-25T02:25:39.815Z,1.60
2018-06-25T02:28:10.903Z,1.83
2018-06-25T02:30:39.855Z,1.60
2018-06-25T02:33:10.704Z,1.60
2018-06-25T02:35:39.896Z,1.90
2018-06-25T02:38:10.403Z,1.80
2018-06-25T02:40:39.291Z,1.77
2018-06-25T02:43:08.099Z,1.57
2018-06-25T02:45:37.011Z,1.60
2018-06-25T02:48:06.678Z,1.40
2018-06-25T02:50:35.787Z,1.67
2018-06-25T02:53:04.607Z,1.57
2018-06-25T02:55:33.451Z,1.57
2018-06-25T02:58:04.339Z,1.70
2018-06-25T03:00:33.479Z,1.67
2018-06-25T03:03:02.776Z,1.50
2018-06-25T03:05:33.195Z,1.73
2018-06-25T03:08:02.100Z,1.60
2018-06-25T03:10:31.119Z,1.70
2018-06-25T03:13:01.383Z,2.20
2018-06-25T03:15:31.941Z,2.30
2018-06-25T03:18:00.868Z,1.70
2018-06-25T03:20:29.751Z,2.03
2018-06-25T03:23:03.306Z,2.10
2018-06-25T03:25:34.703Z,1.80
2018-06-25T03:28:09.451Z,1.80
2018-06-25T03:30:38.619Z,1.97
2018-06-25T03:33:08.867Z,1.70
2018-06-25T03:35:38.280Z,2.00
2018-06-25T03:38:09.559Z,1.90
2018-06-25T03:40:38.507Z,1.60
2018-06-25T03:43:08.174Z,1.73
2018-06-25T03:45:38.271Z,2.07
2018-06-25T03:48:09.119Z,2.33
2018-06-25T03:50:39.967Z,1.60
2018-06-25T03:53:09.791Z,1.80
2018-06-25T03:55:38.555Z,1.80
2018-06-25T03:58:07.338Z,1.73
2018-06-25T04:00:36.215Z,2.00
2018-06-25T04:03:07.201Z,1.60
2018-06-25T04:05:37.027Z,1.73
2018-06-25T04:08:06.770Z,1.97
2018-06-25T04:10:39.015Z,1.80
2018-06-25T04:13:10.387Z,1.63
2018-06-25T04:15:41.239Z,1.70
2018-06-25T04:18:11.043Z,1.80
2018-06-25T04:20:40.776Z,2.30
2018-06-25T04:23:09.654Z,1.60
2018-06-25T04:25:38.530Z,1.70
2018-06-25T04:28:07.322Z,2.00
2018-06-25T04:30:38.077Z,1.70
2018-06-25T04:33:06.923Z,1.77
2018-06-25T04:35:37.670Z,1.80
2018-06-25T04:38:07.450Z,1.83
2018-06-25T04:40:37.182Z,1.67
2018-06-25T04:43:05.747Z,2.10
2018-06-25T04:45:34.462Z,1.83
2018-06-25T04:48:04.255Z,1.87
2018-06-25T04:50:36.825Z,2.13
2018-06-25T04:53:07.467Z,1.57
2018-06-25T04:55:37.290Z,2.13
2018-06-25T04:58:06.066Z,1.90
2018-06-25T05:00:35.999Z,1.60
2018-06-25T05:03:08.047Z,1.90
2018-06-25T05:05:37.839Z,1.77
2018-06-25T05:08:06.650Z,1.80
2018-06-25T05:10:35.242Z,1.80
2018-06-25T05:13:04.010Z,1.70
2018-06-25T05:15:32.786Z,1.80
2018-06-25T05:18:01.655Z,1.70
2018-06-25T05:20:30.482Z,2.00
2018-06-25T05:22:59.261Z,1.90
2018-06-25T05:25:28.142Z,1.90
2018-06-25T05:27:56.954Z,2.17
2018-06-25T05:30:25.714Z,1.90
2018-06-25T05:32:56.470Z,2.63
2018-06-25T05:35:26.842Z,2.10
2018-06-25T05:37:55.598Z,1.80
2018-06-25T05:40:24.494Z,1.80
2018-06-25T05:42:53.358Z,1.87
2018-06-25T05:45:23.138Z,1.70
2018-06-25T05:47:54.010Z,2.00
2018-06-25T05:50:26.297Z,2.30
2018-06-25T05:52:54.939Z,1.80
2018-06-25T05:55:23.694Z,1.77
2018-06-25T05:57:52.523Z,1.77
2018-06-25T06:00:21.266Z,1.80
2018-06-25T06:02:50.366Z,1.93
2018-06-25T06:05:19.174Z,2.03
2018-06-25T06:07:47.921Z,1.60
2018-06-25T06:10:16.798Z,2.10
2018-06-25T06:12:45.335Z,1.83
2018-06-25T06:15:14.054Z,1.97
2018-06-25T06:17:43.855Z,1.70
2018-06-25T06:20:12.667Z,1.87
2018-06-25T06:22:41.166Z,1.77
2018-06-25T06:25:11.942Z,1.60
2018-06-25T06:27:45.969Z,1.70
2018-06-25T06:30:17.038Z,2.43
2018-06-25T06:32:45.905Z,1.70
2018-06-25T06:35:16.649Z,1.77
2018-06-25T06:37:47.786Z,1.70
2018-06-25T06:40:16.575Z,1.67
2018-06-25T06:42:48.594Z,2.17
2018-06-25T06:45:17.350Z,1.60
2018-06-25T06:47:47.117Z,1.60
2018-06-25T06:50:26.894Z,1.80
2018-06-25T06:52:55.770Z,1.60
2018-06-25T06:55:26.510Z,1.77
2018-06-25T06:57:58.862Z,1.67
2018-06-25T07:00:28.622Z,1.23
2018-06-25T07:03:01.751Z,1.40
2018-06-25T07:05:34.842Z,1.53
2018-06-25T07:08:04.914Z,1.33
2018-06-25T07:10:33.783Z,1.50
2018-06-25T07:13:02.643Z,1.53
2018-06-25T07:15:32.636Z,1.37
2018-06-25T07:18:01.374Z,1.57
2018-06-25T07:20:30.131Z,1.40
2018-06-25T07:22:58.876Z,1.00
2018-06-25T07:25:27.716Z,1.40
2018-06-25T07:27:56.522Z,1.40
2018-06-25T07:30:27.226Z,2.07
2018-06-25T07:32:57.018Z,0.93
2018-06-25T07:35:26.734Z,1.20
2018-06-25T07:37:59.002Z,1.50
2018-06-25T07:40:27.798Z,1.33
2018-06-25T07:42:56.622Z,1.20
2018-06-25T07:45:26.414Z,1.00
2018-06-25T07:47:56.019Z,1.07
2018-06-25T07:50:28.066Z,1.27
2018-06-25T07:52:56.919Z,1.07
2018-06-25T07:55:26.659Z,1.17
2018-06-25T07:57:56.470Z,1.13
2018-06-25T08:00:25.282Z,1.10
2018-06-25T08:02:56.094Z,1.50
2018-06-25T08:05:24.814Z,1.33
2018-06-25T08:07:53.594Z,1.40
2018-06-25T08:10:22.426Z,1.07
2018-06-25T08:12:53.202Z,1.20
2018-06-25T08:15:21.955Z,1.13
2018-06-25T08:17:51.790Z,1.10
2018-06-25T08:20:20.592Z,0.90
2018-06-25T08:22:49.318Z,1.23
2018-06-25T08:25:18.162Z,1.10
2018-06-25T08:27:46.926Z,1.20
2018-06-25T08:30:15.758Z,0.90
2018-06-25T08:32:44.462Z,1.00
2018-06-25T08:35:13.194Z,1.20
2018-06-25T08:37:44.041Z,1.20
2018-06-25T08:40:14.914Z,1.33
2018-06-25T08:42:50.446Z,1.00
2018-06-25T08:45:19.202Z,1.10
2018-06-25T08:47:51.170Z,1.10
2018-06-25T08:50:19.977Z,0.90
2018-06-25T08:52:48.734Z,1.00
2018-06-25T08:55:22.838Z,1.10
2018-06-25T08:57:51.724Z,1.00
2018-06-25T09:00:21.642Z,1.10
2018-06-25T09:02:50.445Z,0.90
2018-06-25T09:05:29.208Z,1.00
2018-06-25T09:07:58.962Z,1.30
2018-06-25T09:10:27.753Z,0.90
2018-06-25T09:12:56.574Z,0.97
2018-06-25T09:15:26.449Z,1.00
2018-06-25T09:17:55.166Z,0.80
2018-06-25T09:20:24.970Z,1.00
2018-06-25T09:22:53.849Z,0.80
2018-06-25T09:25:22.586Z,0.80
2018-06-25T09:27:51.490Z,0.90
2018-06-25T09:30:20.417Z,0.80
2018-06-25T09:32:54.734Z,0.80
2018-06-25T09:35:23.769Z,0.80
2018-06-25T09:37:52.358Z,0.80
2018-06-25T09:40:21.770Z,0.83
2018-06-25T09:42:51.901Z,0.80
2018-06-25T09:45:20.986Z,0.80
2018-06-25T09:47:55.014Z,0.77
2018-06-25T09:50:27.630Z,0.80
2018-06-25T09:52:57.414Z,0.70
2018-06-25T09:55:26.210Z,0.80
2018-06-25T09:57:56.733Z,0.80
2018-06-25T10:00:31.142Z,0.80
2018-06-25T10:03:01.374Z,0.90
2018-06-25T10:05:32.606Z,1.07
2018-06-25T10:08:01.750Z,0.90
2018-06-25T10:10:31.732Z,0.80
2018-06-25T10:13:00.422Z,0.80
2018-06-25T10:15:29.145Z,0.80
2018-06-25T10:17:57.998Z,0.90
2018-06-25T10:20:27.806Z,0.70
2018-06-25T10:22:57.625Z,0.97
2018-06-25T10:25:26.422Z,0.80
2018-06-25T10:27:55.162Z,0.70
2018-06-25T10:30:23.986Z,0.80
2018-06-25T10:32:53.790Z,0.70
2018-06-25T10:35:22.589Z,0.80
2018-06-25T10:37:53.421Z,0.90
2018-06-25T10:40:24.153Z,0.77
2018-06-25T10:42:53.644Z,0.70
2018-06-25T10:45:22.302Z,0.80
2018-06-25T10:47:51.138Z,0.77
2018-06-25T10:50:21.973Z,0.80
2018-06-25T10:52:50.747Z,0.73
2018-06-25T10:55:19.541Z,0.80
2018-06-25T10:57:48.325Z,0.83
2018-06-25T11:00:17.172Z,0.80
2018-06-25T11:02:45.910Z,0.80
2018-06-25T11:05:16.751Z,0.67
2018-06-25T11:07:45.565Z,0.70
2018-06-25T11:10:14.318Z,0.90
2018-06-25T11:12:43.069Z,0.90
2018-06-25T11:15:12.598Z,0.80
2018-06-25T11:17:41.302Z,0.70
2018-06-25T11:20:11.106Z,0.87
2018-06-25T11:22:40.897Z,0.77
2018-06-25T11:25:10.628Z,0.90
2018-06-25T11:27:43.514Z,0.83
2018-06-25T11:30:12.286Z,0.90
2018-06-25T11:32:42.101Z,0.60
2018-06-25T11:35:11.925Z,0.90
2018-06-25T11:37:41.645Z,0.70
2018-06-25T11:40:10.441Z,0.90
2018-06-25T11:42:40.649Z,0.77
2018-06-25T11:45:09.441Z,0.87
2018-06-25T11:47:38.193Z,0.80
2018-06-25T11:50:08.953Z,0.80
2018-06-25T11:52:37.769Z,0.80
2018-06-25T11:55:06.541Z,0.80
2018-06-25T11:57:36.409Z,0.80
2018-06-25T12:00:07.217Z,0.80
2018-06-25T12:02:36.201Z,0.70
2018-06-25T12:05:10.693Z,0.80
2018-06-25T12:07:41.521Z,0.70
2018-06-25T12:10:10.345Z,0.67
2018-06-25T12:12:39.373Z,0.70
2018-06-25T12:15:10.145Z,0.70
2018-06-25T12:17:38.929Z,0.80
2018-06-25T12:20:07.833Z,0.70
2018-06-25T12:22:36.613Z,0.70
2018-06-25T12:25:05.397Z,0.70
2018-06-25T12:27:38.762Z,0.70
2018-06-25T12:30:08.830Z,0.80
2018-06-25T12:32:37.617Z,0.80
2018-06-25T12:35:08.475Z,0.83
2018-06-25T12:37:37.213Z,0.70
2018-06-25T12:40:10.942Z,0.70
2018-06-25T12:42:40.741Z,0.70
2018-06-25T12:45:09.533Z,0.80
2018-06-25T12:47:39.321Z,0.80
2018-06-25T12:51:12.385Z,0.70
2018-06-25T12:53:41.230Z,0.70
2018-06-25T12:56:09.969Z,0.70
2018-06-25T12:58:38.788Z,0.60
2018-06-25T13:01:08.604Z,0.80
2018-06-25T13:03:37.357Z,0.70
2018-06-25T13:06:06.169Z,0.70
2018-06-25T13:08:34.949Z,0.90
2018-06-25T13:11:04.769Z,0.77
2018-06-25T13:13:35.500Z,0.90
2018-06-25T13:16:05.313Z,0.70
2018-06-25T13:18:34.065Z,0.90
2018-06-25T13:21:03.853Z,0.80
2018-06-25T13:23:32.713Z,0.70
2018-06-25T13:26:01.689Z,0.80
2018-06-25T13:28:31.736Z,0.87
2018-06-25T13:31:02.650Z,0.80
2018-06-25T13:33:32.372Z,0.70
2018-06-25T13:36:03.205Z,0.73
2018-06-25T13:38:32.005Z,0.80
2018-06-25T13:41:00.785Z,0.80
2018-06-25T13:43:30.580Z,0.70
2018-06-25T13:45:59.336Z,0.90
2018-06-25T13:48:29.093Z,0.70
2018-06-25T13:50:57.852Z,0.80
2018-06-25T13:53:26.588Z,0.73
2018-06-25T13:55:56.448Z,0.70
2018-06-25T13:58:25.952Z,0.70
2018-06-25T14:00:55.676Z,0.80
2018-06-25T14:03:24.464Z,0.63
2018-06-25T14:05:53.268Z,0.70
2018-06-25T14:08:23.000Z,0.70
2018-06-25T14:10:51.788Z,1.27
2018-06-25T14:13:21.605Z,1.00
2018-06-25T14:15:52.388Z,0.67
2018-06-25T14:18:22.225Z,0.80
2018-06-25T14:20:51.012Z,0.70
2018-06-25T14:23:19.793Z,0.70
2018-06-25T14:28:36.113Z,0.70
2018-06-25T14:31:10.081Z,0.70
2018-06-25T14:33:41.737Z,0.70
2018-06-25T14:36:12.445Z,0.90
2018-06-25T14:38:41.276Z,0.70
2018-06-25T14:41:13.540Z,0.80
2018-06-25T14:43:42.337Z,0.70
2018-06-25T14:46:12.058Z,0.60
2018-06-25T14:48:40.829Z,1.33
2018-06-25T14:51:17.025Z,0.67
2018-06-25T14:53:53.133Z,0.70
2018-06-25T14:56:26.025Z,0.80
2018-06-25T14:58:54.824Z,0.60
2018-06-25T15:01:24.637Z,0.70
2018-06-25T15:03:53.811Z,0.80
2018-06-25T15:06:24.584Z,0.70
2018-06-25T15:08:53.312Z,0.77
2018-06-25T15:11:22.393Z,0.90
2018-06-25T15:13:51.235Z,0.90
2018-06-25T15:16:24.013Z,0.70
2018-06-25T15:18:52.808Z,0.80
2018-06-25T15:21:22.613Z,0.70
2018-06-25T15:23:51.404Z,0.77
2018-06-25T15:26:21.228Z,0.73
2018-06-25T15:28:51.060Z,0.67
2018-06-25T15:31:19.800Z,0.70
2018-06-25T15:33:48.616Z,0.80
2018-06-25T15:36:17.385Z,0.60
2018-06-25T15:38:46.264Z,0.80
2018-06-25T15:41:16.984Z,0.80
2018-06-25T15:43:46.716Z,0.80
2018-06-25T15:46:15.420Z,0.70
2018-06-25T15:48:44.304Z,0.80
2018-06-25T15:51:15.136Z,0.73
2018-06-25T15:53:47.380Z,0.70
2018-06-25T15:56:18.108Z,1.13
2018-06-25T15:58:46.836Z,0.70
2018-06-25T16:01:15.592Z,0.70
2018-06-25T16:03:44.326Z,0.80
2018-06-25T16:06:16.642Z,0.70
2018-06-25T16:08:45.416Z,0.90
2018-06-25T16:11:14.144Z,0.83
2018-06-25T16:13:42.880Z,0.80
2018-06-25T16:16:11.731Z,0.87
2018-06-25T16:18:48.632Z,0.80
2018-06-25T16:21:22.924Z,0.63
2018-06-25T16:23:54.996Z,1.10
2018-06-25T16:26:23.760Z,0.80
2018-06-25T16:28:53.524Z,0.90
2018-06-25T16:31:22.348Z,1.00
2018-06-25T16:33:51.324Z,0.83
2018-06-25T16:36:20.116Z,0.80
2018-06-25T16:38:48.850Z,0.97
2018-06-25T16:41:18.650Z,0.80
2018-06-25T16:43:47.406Z,0.90
2018-06-25T16:46:17.220Z,0.83
2018-06-25T16:48:47.955Z,0.93
2018-06-25T16:51:16.681Z,0.90
2018-06-25T16:53:46.456Z,0.90
2018-06-25T16:56:16.284Z,0.80
2018-06-25T16:58:45.074Z,0.90
2018-06-25T17:01:13.800Z,1.00
2018-06-25T17:03:42.636Z,1.30
2018-06-25T17:06:11.407Z,1.43
2018-06-25T17:08:40.195Z,1.20
2018-06-25T17:11:09.184Z,1.50
2018-06-25T17:13:38.008Z,1.50
2018-06-25T17:16:07.816Z,1.53
2018-06-25T17:18:37.083Z,1.30
2018-06-25T17:21:06.005Z,1.30
2018-06-25T17:23:35.039Z,1.50
2018-06-25T17:26:03.820Z,1.37
2018-06-25T17:28:32.663Z,1.53
2018-06-25T17:31:01.457Z,1.40
2018-06-25T17:33:30.239Z,1.47
2018-06-25T17:35:59.024Z,1.40
2018-06-25T17:38:27.812Z,1.40
2018-06-25T17:40:57.616Z,1.77
2018-06-25T17:43:27.443Z,1.80
2018-06-25T17:45:57.248Z,1.40
2018-06-25T17:48:26.105Z,1.57
2018-06-25T17:50:54.832Z,1.20
2018-06-25T17:53:24.631Z,1.23
2018-06-25T17:55:53.496Z,1.70
2018-06-25T17:58:22.327Z,2.63
2018-06-25T18:00:51.123Z,1.63
2018-06-25T18:03:19.887Z,1.43
2018-06-25T18:05:49.483Z,1.80
2018-06-25T18:08:18.226Z,1.83
2018-06-25T18:10:47.000Z,1.50
2018-06-25T18:13:15.784Z,2.00
2018-06-25T18:15:45.579Z,2.00
2018-06-25T18:18:14.556Z,1.67
2018-06-25T18:20:43.691Z,1.80
2018-06-25T18:23:13.479Z,1.57
2018-06-25T18:25:42.264Z,2.40
2018-06-25T18:28:11.026Z,1.80
2018-06-25T18:30:39.859Z,2.00
2018-06-25T18:33:08.755Z,2.07
2018-06-25T18:35:37.607Z,2.37
2018-06-25T18:38:06.370Z,1.80
2018-06-25T18:40:35.195Z,1.60
2018-06-25T18:43:05.123Z,1.70
2018-06-25T18:45:33.795Z,2.00
2018-06-25T18:48:02.563Z,1.90
2018-06-25T18:50:32.387Z,2.00
2018-06-25T18:53:02.199Z,1.63
2018-06-25T18:55:31.015Z,1.87
2018-06-25T18:58:01.848Z,2.23
2018-06-25T19:00:31.676Z,2.03
2018-06-25T19:03:00.555Z,1.90
2018-06-25T19:05:30.036Z,1.60
2018-06-25T19:08:00.319Z,2.03
2018-06-25T19:10:29.879Z,1.73
2018-06-25T19:12:58.972Z,2.03
2018-06-25T19:15:28.755Z,2.40
2018-06-25T19:17:57.641Z,2.17
2018-06-25T19:20:27.327Z,2.30
2018-06-25T19:22:57.095Z,1.40
2018-06-25T19:25:26.719Z,2.17
2018-06-25T19:27:56.755Z,1.70
2018-06-25T19:30:25.611Z,2.20
2018-06-25T19:32:56.371Z,2.40
2018-06-25T19:35:25.147Z,2.17
2018-06-25T19:37:53.951Z,1.90
2018-06-25T19:40:22.860Z,2.10
2018-06-25T19:42:51.575Z,2.20
2018-06-25T19:45:20.367Z,1.90
2018-06-25T19:47:49.115Z,2.80
2018-06-25T19:50:17.879Z,1.80
2018-06-25T19:52:46.743Z,2.37
2018-06-25T19:55:15.279Z,2.60
2018-06-25T19:57:44.019Z,2.20
2018-06-25T20:00:13.777Z,2.20
2018-06-25T20:02:42.666Z,2.57
2018-06-25T20:05:11.406Z,2.17
2018-06-25T20:07:40.239Z,2.00
2018-06-25T20:10:09.063Z,2.40
2018-06-25T20:12:37.902Z,2.23
2018-06-25T20:15:06.655Z,2.50
2018-06-25T20:17:35.426Z,2.30
2018-06-25T20:20:06.367Z,2.17
2018-06-25T20:22:35.211Z,2.03
2018-06-25T20:25:06.455Z,1.83
2018-06-25T20:27:35.219Z,1.80
2018-06-25T20:30:04.599Z,2.10
2018-06-25T20:32:33.379Z,2.77
2018-06-25T20:35:02.143Z,2.17
2018-06-25T20:37:32.928Z,2.70
2018-06-25T20:40:01.727Z,2.30
2018-06-25T20:42:30.589Z,2.67
2018-06-25T20:45:03.351Z,2.53
2018-06-25T20:47:32.134Z,2.50
2018-06-25T20:50:00.923Z,2.40
2018-06-25T20:52:30.766Z,2.60
2018-06-25T20:54:59.292Z,2.53
2018-06-25T20:57:29.066Z,2.60
2018-06-25T20:59:57.907Z,2.60
2018-06-25T21:02:26.705Z,2.13
2018-06-25T21:04:58.474Z,2.13
2018-06-25T21:07:28.323Z,2.10
2018-06-25T21:09:57.201Z,2.50
2018-06-25T21:12:26.982Z,2.33
2018-06-25T21:14:55.779Z,2.47
2018-06-25T21:17:24.527Z,2.43
2018-06-25T21:19:53.334Z,2.63
2018-06-25T21:22:23.175Z,2.70
2018-06-25T21:24:53.990Z,2.60
2018-06-25T21:27:22.794Z,2.60
2018-06-25T21:29:56.370Z,2.50
2018-06-25T21:32:25.156Z,2.63
2018-06-25T21:34:53.966Z,2.60
2018-06-25T21:37:22.742Z,2.30
2018-06-25T21:39:51.531Z,2.60
2018-06-25T21:42:22.386Z,2.00
2018-06-25T21:44:52.179Z,2.67
2018-06-25T21:47:21.160Z,2.40
2018-06-25T21:49:50.887Z,3.07
2018-06-25T21:52:21.054Z,2.40
2018-06-25T21:54:49.895Z,2.37
2018-06-25T21:57:19.716Z,2.23
2018-06-25T21:59:48.497Z,2.80
2018-06-25T22:02:17.262Z,3.10
2018-06-25T22:04:46.071Z,2.60
2018-06-25T22:07:14.855Z,2.80
2018-06-25T22:09:43.687Z,2.30
2018-06-25T22:12:12.519Z,2.47
2018-06-25T22:14:41.334Z,2.40
2018-06-25T22:17:11.132Z,3.03
2018-06-25T22:19:41.850Z,2.57
2018-06-25T22:22:10.670Z,2.57
2018-06-25T22:24:41.499Z,2.70
2018-06-25T22:27:10.286Z,2.60
2018-06-25T22:29:41.126Z,2.20
2018-06-25T22:32:11.960Z,2.70
2018-06-25T22:34:40.750Z,2.30
2018-06-25T22:37:11.603Z,3.00
2018-06-25T22:39:40.470Z,2.80
2018-06-25T22:42:09.262Z,2.27
2018-06-25T22:44:41.118Z,2.97
2018-06-25T22:47:09.903Z,2.90
2018-06-25T22:49:38.724Z,2.10
2018-06-25T22:52:07.554Z,2.60
2018-06-25T22:54:36.346Z,2.60
2018-06-25T22:57:06.150Z,2.73
2018-06-25T22:59:34.948Z,3.00
2018-06-25T23:02:05.802Z,2.67
2018-06-25T23:04:35.619Z,3.10
2018-06-25T23:07:07.863Z,2.60
2018-06-25T23:09:37.683Z,2.73
2018-06-25T23:12:06.482Z,3.10
2018-06-25T23:14:35.258Z,2.80
2018-06-25T23:17:04.058Z,2.50
2018-06-25T23:19:33.910Z,2.90
2018-06-25T23:22:02.798Z,3.03
2018-06-25T23:24:31.702Z,2.83
2018-06-25T23:27:00.542Z,2.83
2018-06-25T23:29:29.323Z,2.93
2018-06-25T23:31:58.118Z,2.60
2018-06-25T23:34:26.882Z,2.67
2018-06-25T23:36:57.746Z,2.50
2018-06-25T23:39:26.630Z,2.30
2018-06-25T23:41:55.194Z,2.83
2018-06-25T23:44:23.902Z,3.03
2018-06-25T23:46:52.722Z,3.10
2018-06-25T23:49:21.566Z,2.93
2018-06-25T23:51:50.366Z,2.70
2018-06-25T23:54:19.182Z,2.47
2018-06-25T23:56:48.058Z,2.90
2018-06-25T23:59:16.830Z,3.30
